Bookmark and Share
Track history (hours):
 

Helen Merril

More information available from US FCC via Universal Licensing System and Coast Guard Vessel Documentation Center.

Last reported at 2014-Apr-05 07:33 UTC. Time now 2014-Apr-20 08:49 UTC.
Position N 29°59' W 090°48'.
Warning: this ship's position is 15 days out of date.

Length 33 m; draft 3 m.

Type: Ship (hazmat cat A). MMSI: 367434260.

NotesDate/timePositionNaut miles runAvg speedWind from/ knotsBaromVisibWave heightAir tempDewpointWater temp
2014-Apr-05 07:33N 29°59' W 090°48'5 4.8
2014-Apr-05 06:33N 30°01' W 090°43'5 4.5
2014-Apr-05 05:33N 30°02' W 090°38'5 4.6
2014-Apr-05 04:33N 30°03' W 090°33'4 4.0
2014-Apr-05 03:33N 30°02' W 090°28'5 4.3
2014-Apr-05 02:24N 29°59' W 090°24'4 4.4
2014-Apr-05 01:29N 29°56' W 090°20'21 0.6
2014-Apr-03 12:10N 29°55' W 089°56'0 0.0
2014-Apr-03 10:31N 29°55' W 089°56'0 0.0
2014-Apr-03 09:24N 29°55' W 089°56'0 0.0
2014-Apr-03 08:06N 29°55' W 089°56'0 0.0
2014-Apr-03 07:33N 29°55' W 089°56'0 0.0
2014-Apr-03 06:18N 29°55' W 089°56'0 0.0
2014-Apr-02 13:19N 29°55' W 089°56'0 0.2
2014-Apr-02 12:29N 29°55' W 089°57'6 6.3
2014-Apr-02 11:33N 29°56' W 090°03'6 5.4
2014-Apr-02 10:32N 29°57' W 090°10'7 6.6
2014-Apr-02 09:33N 29°58' W 090°17'7 6.1
2014-Apr-02 08:28N 29°59' W 090°25'  

Dump ship's entire track history

sailing weather and tide predictions

Helen Merril — WDF2994 — position and weather